Jelgava, Latvia
Current Conditions -  °F | °C
As of 4:50 AM on Tuesday 25 Nov 2014 (Local Time) from EVRA Reporting Station
Overcast Overcast  
Wind Chill: 22°   Ceiling: 800
Heat Index: 32°   Visibility: 4mi
Dew Point: 30°   Wind: 14mph
Humidity: 93%   Direction: 170°S
Pressure: 30.27"   Gusts: NA
Location:  56.65°N, 23.71°E
Report Text: EVRA 250150Z 17012KT 6000 OVC008 M00/M01 Q1025 R18/190095 NOSIG
Loading
Personal Weather Stations






























Interactive Weather Map New forecast layout! Learn more

10-Day Weather Forecast

Advertisements
Track Severe Weather on mobile